sensor_id;sensor_type;location;lat;lon;timestamp;pressure;altitude;pressure_sealevel;temperature;humidity
60976;BME280;46849;48.154;17.042;2022-12-10T00:01:14;97310.03;;;1.87;100.00
60976;BME280;46849;48.154;17.042;2022-12-10T00:04:00;97311.72;;;1.88;100.00
60976;BME280;46849;48.154;17.042;2022-12-10T00:06:45;97310.22;;;1.83;100.00
60976;BME280;46849;48.154;17.042;2022-12-10T00:09:30;97321.28;;;1.86;100.00
60976;BME280;46849;48.154;17.042;2022-12-10T00:12:16;97318.56;;;1.72;100.00
60976;BME280;46849;48.154;17.042;2022-12-10T00:15:01;97323.88;;;1.86;100.00
60976;BME280;46849;48.154;17.042;2022-12-10T00:17:46;97325.66;;;1.69;100.00
60976;BME280;46849;48.154;17.042;2022-12-10T00:20:30;97333.03;;;1.75;100.00
60976;BME280;46849;48.154;17.042;2022-12-10T00:23:15;97325.88;;;1.80;100.00
60976;BME280;46849;48.154;17.042;2022-12-10T00:26:13;97330.13;;;1.81;100.00
60976;BME280;46849;48.154;17.042;2022-12-10T00:29:02;97341.84;;;2.03;100.00
60976;BME280;46849;48.154;17.042;2022-12-10T00:31:47;97347.88;;;1.88;100.00
60976;BME280;46849;48.154;17.042;2022-12-10T00:34:31;97352.94;;;1.73;100.00
60976;BME280;46849;48.154;17.042;2022-12-10T00:37:16;97353.88;;;1.72;100.00
60976;BME280;46849;48.154;17.042;2022-12-10T00:40:01;97357.72;;;1.81;100.00
60976;BME280;46849;48.154;17.042;2022-12-10T00:42:45;97367.97;;;1.82;100.00
60976;BME280;46849;48.154;17.042;2022-12-10T00:45:31;97355.53;;;1.89;100.00
60976;BME280;46849;48.154;17.042;2022-12-10T00:48:15;97353.19;;;1.68;100.00
60976;BME280;46849;48.154;17.042;2022-12-10T00:51:10;97356.38;;;1.57;100.00
60976;BME280;46849;48.154;17.042;2022-12-10T00:53:58;97351.97;;;1.59;100.00
60976;BME280;46849;48.154;17.042;2022-12-10T00:56:43;97362.38;;;1.74;100.00
60976;BME280;46849;48.154;17.042;2022-12-10T00:59:27;97357.47;;;1.86;100.00
60976;BME280;46849;48.154;17.042;2022-12-10T01:02:14;97371.94;;;1.72;100.00
60976;BME280;46849;48.154;17.042;2022-12-10T01:04:58;97367.38;;;1.77;100.00
60976;BME280;46849;48.154;17.042;2022-12-10T01:07:43;97369.03;;;1.78;100.00
60976;BME280;46849;48.154;17.042;2022-12-10T01:10:28;97371.97;;;1.56;100.00
60976;BME280;46849;48.154;17.042;2022-12-10T01:13:13;97370.38;;;1.69;100.00
60976;BME280;46849;48.154;17.042;2022-12-10T01:16:01;97369.22;;;1.59;100.00
60976;BME280;46849;48.154;17.042;2022-12-10T01:18:46;97384.88;;;1.56;100.00
60976;BME280;46849;48.154;17.042;2022-12-10T01:21:31;97380.28;;;1.77;100.00
60976;BME280;46849;48.154;17.042;2022-12-10T01:24:16;97374.88;;;1.66;100.00
60976;BME280;46849;48.154;17.042;2022-12-10T01:27:02;97382.88;;;1.45;100.00
60976;BME280;46849;48.154;17.042;2022-12-10T01:29:47;97380.28;;;1.45;100.00
60976;BME280;46849;48.154;17.042;2022-12-10T01:32:32;97393.28;;;1.43;100.00
60976;BME280;46849;48.154;17.042;2022-12-10T01:35:18;97407.41;;;1.36;100.00
60976;BME280;46849;48.154;17.042;2022-12-10T01:38:02;97411.88;;;1.32;100.00
60976;BME280;46849;48.154;17.042;2022-12-10T01:40:47;97406.72;;;1.32;100.00
60976;BME280;46849;48.154;17.042;2022-12-10T01:46:57;97424.50;;;1.21;100.00
60976;BME280;46849;48.154;17.042;2022-12-10T01:49:42;97411.69;;;1.19;100.00
60976;BME280;46849;48.154;17.042;2022-12-10T01:52:30;97408.66;;;1.11;100.00
60976;BME280;46849;48.154;17.042;2022-12-10T01:55:45;97398.78;;;1.19;100.00
60976;BME280;46849;48.154;17.042;2022-12-10T01:58:31;97403.31;;;1.16;100.00
60976;BME280;46849;48.154;17.042;2022-12-10T02:01:49;97392.19;;;0.97;100.00
60976;BME280;46849;48.154;17.042;2022-12-10T02:21:05;97410.44;;;1.10;100.00
60976;BME280;46849;48.154;17.042;2022-12-10T02:24:04;97412.81;;;0.97;100.00
60976;BME280;46849;48.154;17.042;2022-12-10T02:29:38;97435.34;;;0.94;100.00
60976;BME280;46849;48.154;17.042;2022-12-10T02:32:30;97439.91;;;0.89;100.00
60976;BME280;46849;48.154;17.042;2022-12-10T02:35:27;97450.19;;;1.06;100.00
60976;BME280;46849;48.154;17.042;2022-12-10T02:38:20;97455.31;;;1.24;100.00
60976;BME280;46849;48.154;17.042;2022-12-10T02:41:14;97463.94;;;1.07;100.00
60976;BME280;46849;48.154;17.042;2022-12-10T02:44:04;97453.06;;;1.18;100.00
60976;BME280;46849;48.154;17.042;2022-12-10T02:46:54;97434.19;;;1.17;100.00
60976;BME280;46849;48.154;17.042;2022-12-10T02:49:56;97446.59;;;1.27;100.00
60976;BME280;46849;48.154;17.042;2022-12-10T02:52:41;97438.53;;;0.99;100.00
60976;BME280;46849;48.154;17.042;2022-12-10T02:55:26;97435.06;;;1.16;100.00
60976;BME280;46849;48.154;17.042;2022-12-10T03:07:36;97447.84;;;1.02;100.00
60976;BME280;46849;48.154;17.042;2022-12-10T03:10:31;97468.81;;;1.29;100.00
60976;BME280;46849;48.154;17.042;2022-12-10T03:13:17;97456.28;;;1.39;100.00
60976;BME280;46849;48.154;17.042;2022-12-10T03:16:05;97454.09;;;1.31;100.00
60976;BME280;46849;48.154;17.042;2022-12-10T03:18:53;97455.88;;;1.13;100.00
60976;BME280;46849;48.154;17.042;2022-12-10T03:21:41;97448.78;;;1.01;100.00
60976;BME280;46849;48.154;17.042;2022-12-10T03:24:27;97443.75;;;0.97;100.00
60976;BME280;46849;48.154;17.042;2022-12-10T03:27:13;97457.03;;;1.07;100.00
60976;BME280;46849;48.154;17.042;2022-12-10T03:30:00;97449.69;;;1.00;100.00
60976;BME280;46849;48.154;17.042;2022-12-10T03:32:45;97445.28;;;0.84;100.00
60976;BME280;46849;48.154;17.042;2022-12-10T03:35:31;97456.72;;;1.14;100.00
60976;BME280;46849;48.154;17.042;2022-12-10T03:38:16;97461.03;;;1.13;100.00
60976;BME280;46849;48.154;17.042;2022-12-10T03:41:02;97462.13;;;1.09;100.00
60976;BME280;46849;48.154;17.042;2022-12-10T03:48:37;97472.59;;;1.06;100.00
60976;BME280;46849;48.154;17.042;2022-12-10T03:51:24;97477.88;;;1.54;100.00
60976;BME280;46849;48.154;17.042;2022-12-10T03:54:09;97479.75;;;1.68;100.00
60976;BME280;46849;48.154;17.042;2022-12-10T03:56:55;97479.72;;;1.52;100.00
60976;BME280;46849;48.154;17.042;2022-12-10T03:59:39;97482.22;;;1.02;100.00
60976;BME280;46849;48.154;17.042;2022-12-10T04:02:24;97494.19;;;1.39;100.00
60976;BME280;46849;48.154;17.042;2022-12-10T04:05:09;97494.72;;;1.28;100.00
60976;BME280;46849;48.154;17.042;2022-12-10T04:07:54;97483.38;;;1.14;100.00
60976;BME280;46849;48.154;17.042;2022-12-10T04:10:39;97478.50;;;1.08;100.00
60976;BME280;46849;48.154;17.042;2022-12-10T04:13:24;97470.00;;;1.06;100.00
60976;BME280;46849;48.154;17.042;2022-12-10T04:16:28;97450.13;;;0.90;100.00
60976;BME280;46849;48.154;17.042;2022-12-10T04:19:17;97459.47;;;0.93;100.00
60976;BME280;46849;48.154;17.042;2022-12-10T04:22:02;97468.56;;;0.82;100.00
60976;BME280;46849;48.154;17.042;2022-12-10T04:25:08;97475.09;;;0.90;100.00
60976;BME280;46849;48.154;17.042;2022-12-10T04:28:13;97484.66;;;0.88;100.00
60976;BME280;46849;48.154;17.042;2022-12-10T04:30:59;97481.53;;;0.81;100.00
60976;BME280;46849;48.154;17.042;2022-12-10T04:33:43;97486.84;;;0.78;100.00
60976;BME280;46849;48.154;17.042;2022-12-10T04:36:29;97487.69;;;0.78;100.00
60976;BME280;46849;48.154;17.042;2022-12-10T04:39:17;97480.47;;;0.85;100.00
60976;BME280;46849;48.154;17.042;2022-12-10T04:42:03;97481.16;;;0.71;100.00
60976;BME280;46849;48.154;17.042;2022-12-10T04:44:50;97483.13;;;0.66;100.00
60976;BME280;46849;48.154;17.042;2022-12-10T04:47:37;97481.16;;;0.71;100.00
60976;BME280;46849;48.154;17.042;2022-12-10T04:50:22;97481.63;;;0.79;100.00
60976;BME280;46849;48.154;17.042;2022-12-10T04:53:09;97478.41;;;0.92;100.00
60976;BME280;46849;48.154;17.042;2022-12-10T04:55:54;97470.91;;;0.69;100.00
60976;BME280;46849;48.154;17.042;2022-12-10T04:58:40;97474.03;;;0.58;100.00
60976;BME280;46849;48.154;17.042;2022-12-10T05:01:26;97464.75;;;0.72;100.00
60976;BME280;46849;48.154;17.042;2022-12-10T05:04:14;97469.38;;;0.47;100.00
60976;BME280;46849;48.154;17.042;2022-12-10T05:06:59;97457.03;;;0.54;100.00
60976;BME280;46849;48.154;17.042;2022-12-10T05:09:44;97457.94;;;0.53;100.00
60976;BME280;46849;48.154;17.042;2022-12-10T05:12:29;97461.78;;;0.44;100.00
60976;BME280;46849;48.154;17.042;2022-12-10T05:15:14;97466.94;;;0.44;100.00
60976;BME280;46849;48.154;17.042;2022-12-10T05:17:58;97471.75;;;0.52;100.00
60976;BME280;46849;48.154;17.042;2022-12-10T05:20:44;97453.16;;;0.45;100.00
60976;BME280;46849;48.154;17.042;2022-12-10T05:23:28;97438.59;;;0.44;100.00
60976;BME280;46849;48.154;17.042;2022-12-10T05:26:17;97436.53;;;0.33;100.00
60976;BME280;46849;48.154;17.042;2022-12-10T05:29:02;97439.03;;;0.35;100.00
60976;BME280;46849;48.154;17.042;2022-12-10T05:31:47;97425.13;;;0.39;100.00
60976;BME280;46849;48.154;17.042;2022-12-10T05:34:32;97428.66;;;0.36;100.00
60976;BME280;46849;48.154;17.042;2022-12-10T05:37:19;97413.19;;;0.36;100.00
60976;BME280;46849;48.154;17.042;2022-12-10T05:40:05;97420.63;;;0.43;100.00
60976;BME280;46849;48.154;17.042;2022-12-10T05:42:51;97418.75;;;0.46;100.00
60976;BME280;46849;48.154;17.042;2022-12-10T05:45:36;97435.50;;;0.55;100.00
60976;BME280;46849;48.154;17.042;2022-12-10T05:48:21;97430.50;;;0.52;100.00
60976;BME280;46849;48.154;17.042;2022-12-10T05:51:07;97437.78;;;0.61;100.00
60976;BME280;46849;48.154;17.042;2022-12-10T05:53:53;97438.31;;;0.68;100.00
60976;BME280;46849;48.154;17.042;2022-12-10T05:56:37;97453.72;;;0.70;100.00
60976;BME280;46849;48.154;17.042;2022-12-10T05:59:22;97454.03;;;0.64;100.00
60976;BME280;46849;48.154;17.042;2022-12-10T06:02:07;97460.69;;;0.85;100.00
60976;BME280;46849;48.154;17.042;2022-12-10T06:04:52;97455.06;;;1.13;100.00
60976;BME280;46849;48.154;17.042;2022-12-10T06:07:38;97461.25;;;1.26;100.00
60976;BME280;46849;48.154;17.042;2022-12-10T06:10:23;97467.44;;;1.06;100.00
60976;BME280;46849;48.154;17.042;2022-12-10T06:13:07;97471.19;;;1.84;100.00
60976;BME280;46849;48.154;17.042;2022-12-10T06:15:52;97480.09;;;2.11;100.00
60976;BME280;46849;48.154;17.042;2022-12-10T06:18:37;97485.53;;;2.06;100.00
60976;BME280;46849;48.154;17.042;2022-12-10T06:21:23;97496.81;;;1.55;100.00
60976;BME280;46849;48.154;17.042;2022-12-10T06:24:08;97493.44;;;2.19;100.00
60976;BME280;46849;48.154;17.042;2022-12-10T06:26:53;97504.28;;;1.93;100.00
60976;BME280;46849;48.154;17.042;2022-12-10T06:29:37;97524.16;;;1.75;100.00
60976;BME280;46849;48.154;17.042;2022-12-10T06:32:26;97528.22;;;2.13;100.00
60976;BME280;46849;48.154;17.042;2022-12-10T06:35:11;97537.78;;;2.11;100.00
60976;BME280;46849;48.154;17.042;2022-12-10T06:37:58;97548.31;;;2.24;100.00
60976;BME280;46849;48.154;17.042;2022-12-10T06:40:44;97544.56;;;2.14;100.00
60976;BME280;46849;48.154;17.042;2022-12-10T06:43:31;97546.06;;;2.34;100.00
60976;BME280;46849;48.154;17.042;2022-12-10T06:46:18;97545.38;;;2.14;100.00
60976;BME280;46849;48.154;17.042;2022-12-10T06:49:05;97546.97;;;1.67;100.00
60976;BME280;46849;48.154;17.042;2022-12-10T06:51:51;97554.38;;;1.91;100.00
60976;BME280;46849;48.154;17.042;2022-12-10T06:54:36;97541.63;;;1.88;100.00
60976;BME280;46849;48.154;17.042;2022-12-10T06:57:23;97540.44;;;1.93;100.00
60976;BME280;46849;48.154;17.042;2022-12-10T07:00:08;97534.13;;;2.15;100.00
60976;BME280;46849;48.154;17.042;2022-12-10T07:02:53;97517.69;;;1.50;100.00
60976;BME280;46849;48.154;17.042;2022-12-10T07:05:37;97530.19;;;1.92;100.00
60976;BME280;46849;48.154;17.042;2022-12-10T07:08:25;97520.44;;;2.62;100.00
60976;BME280;46849;48.154;17.042;2022-12-10T07:11:21;97502.00;;;4.30;100.00
60976;BME280;46849;48.154;17.042;2022-12-10T07:14:14;97509.78;;;2.99;100.00
60976;BME280;46849;48.154;17.042;2022-12-10T07:16:59;97519.09;;;1.90;100.00
60976;BME280;46849;48.154;17.042;2022-12-10T07:19:51;97523.66;;;1.17;100.00
60976;BME280;46849;48.154;17.042;2022-12-10T07:22:36;97521.31;;;1.80;100.00
60976;BME280;46849;48.154;17.042;2022-12-10T07:25:21;97515.38;;;1.95;100.00
60976;BME280;46849;48.154;17.042;2022-12-10T07:28:05;97512.06;;;1.59;100.00
60976;BME280;46849;48.154;17.042;2022-12-10T07:30:50;97515.66;;;1.39;100.00
60976;BME280;46849;48.154;17.042;2022-12-10T07:33:35;97496.88;;;1.53;100.00
60976;BME280;46849;48.154;17.042;2022-12-10T07:36:22;97485.06;;;1.31;100.00
60976;BME280;46849;48.154;17.042;2022-12-10T07:39:08;97485.81;;;1.67;100.00
60976;BME280;46849;48.154;17.042;2022-12-10T07:41:53;97478.84;;;1.69;100.00
60976;BME280;46849;48.154;17.042;2022-12-10T07:44:38;97482.34;;;1.34;100.00
60976;BME280;46849;48.154;17.042;2022-12-10T07:47:23;97488.81;;;1.59;100.00
60976;BME280;46849;48.154;17.042;2022-12-10T07:50:08;97491.94;;;1.48;100.00
60976;BME280;46849;48.154;17.042;2022-12-10T07:52:52;97490.22;;;1.31;100.00
60976;BME280;46849;48.154;17.042;2022-12-10T07:55:38;97479.72;;;1.18;100.00
60976;BME280;46849;48.154;17.042;2022-12-10T07:58:23;97485.19;;;1.12;100.00
60976;BME280;46849;48.154;17.042;2022-12-10T08:01:12;97479.50;;;1.05;100.00
60976;BME280;46849;48.154;17.042;2022-12-10T08:03:58;97469.94;;;0.90;100.00
60976;BME280;46849;48.154;17.042;2022-12-10T08:06:43;97461.00;;;0.79;100.00
60976;BME280;46849;48.154;17.042;2022-12-10T08:09:28;97481.75;;;1.12;100.00
60976;BME280;46849;48.154;17.042;2022-12-10T08:12:13;97484.03;;;1.18;100.00
60976;BME280;46849;48.154;17.042;2022-12-10T08:14:57;97497.69;;;1.20;100.00
60976;BME280;46849;48.154;17.042;2022-12-10T08:17:43;97503.31;;;1.10;100.00
60976;BME280;46849;48.154;17.042;2022-12-10T08:20:28;97510.59;;;1.54;100.00
60976;BME280;46849;48.154;17.042;2022-12-10T08:23:13;97504.34;;;1.42;100.00
60976;BME280;46849;48.154;17.042;2022-12-10T08:25:57;97509.44;;;1.43;100.00
60976;BME280;46849;48.154;17.042;2022-12-10T08:28:42;97520.81;;;1.39;100.00
60976;BME280;46849;48.154;17.042;2022-12-10T08:31:28;97523.03;;;1.29;100.00
60976;BME280;46849;48.154;17.042;2022-12-10T08:34:15;97516.59;;;2.04;100.00
60976;BME280;46849;48.154;17.042;2022-12-10T08:36:59;97524.94;;;1.93;100.00
60976;BME280;46849;48.154;17.042;2022-12-10T08:39:44;97516.91;;;1.66;100.00
60976;BME280;46849;48.154;17.042;2022-12-10T08:42:28;97514.41;;;1.80;100.00
60976;BME280;46849;48.154;17.042;2022-12-10T08:45:13;97494.75;;;1.62;100.00
60976;BME280;46849;48.154;17.042;2022-12-10T08:47:58;97494.53;;;1.48;100.00
60976;BME280;46849;48.154;17.042;2022-12-10T08:50:42;97496.91;;;1.69;100.00
60976;BME280;46849;48.154;17.042;2022-12-10T08:53:27;97501.41;;;1.32;100.00
60976;BME280;46849;48.154;17.042;2022-12-10T08:56:12;97501.63;;;1.27;100.00
60976;BME280;46849;48.154;17.042;2022-12-10T08:58:56;97495.56;;;1.10;100.00
60976;BME280;46849;48.154;17.042;2022-12-10T09:01:41;97507.75;;;1.42;100.00
60976;BME280;46849;48.154;17.042;2022-12-10T09:04:27;97509.91;;;1.68;100.00
60976;BME280;46849;48.154;17.042;2022-12-10T09:07:12;97516.97;;;1.64;100.00
60976;BME280;46849;48.154;17.042;2022-12-10T09:09:57;97529.72;;;1.67;100.00
60976;BME280;46849;48.154;17.042;2022-12-10T09:12:42;97548.00;;;1.46;100.00
60976;BME280;46849;48.154;17.042;2022-12-10T09:15:27;97543.97;;;2.41;100.00
60976;BME280;46849;48.154;17.042;2022-12-10T09:18:12;97536.88;;;2.44;100.00
60976;BME280;46849;48.154;17.042;2022-12-10T09:20:56;97533.50;;;1.78;100.00
60976;BME280;46849;48.154;17.042;2022-12-10T09:23:42;97540.06;;;1.67;100.00
60976;BME280;46849;48.154;17.042;2022-12-10T09:26:27;97547.50;;;1.90;100.00
60976;BME280;46849;48.154;17.042;2022-12-10T09:29:11;97540.94;;;2.00;100.00
60976;BME280;46849;48.154;17.042;2022-12-10T09:31:57;97535.56;;;1.71;100.00
60976;BME280;46849;48.154;17.042;2022-12-10T09:34:42;97533.38;;;2.29;100.00
60976;BME280;46849;48.154;17.042;2022-12-10T09:37:28;97525.63;;;2.29;100.00
60976;BME280;46849;48.154;17.042;2022-12-10T09:40:17;97534.25;;;1.80;100.00
60976;BME280;46849;48.154;17.042;2022-12-10T09:43:15;97534.16;;;1.81;100.00
60976;BME280;46849;48.154;17.042;2022-12-10T09:52:29;97520.31;;;3.55;100.00
60976;BME280;46849;48.154;17.042;2022-12-10T09:55:30;97522.25;;;3.06;100.00
60976;BME280;46849;48.154;17.042;2022-12-10T09:58:26;97527.31;;;3.97;100.00
60976;BME280;46849;48.154;17.042;2022-12-10T10:01:14;97515.75;;;4.03;100.00
60976;BME280;46849;48.154;17.042;2022-12-10T10:04:03;97512.84;;;4.22;100.00
60976;BME280;46849;48.154;17.042;2022-12-10T10:06:47;97526.28;;;3.56;100.00
60976;BME280;46849;48.154;17.042;2022-12-10T10:09:36;97523.53;;;2.99;100.00
60976;BME280;46849;48.154;17.042;2022-12-10T10:12:23;97527.03;;;2.98;100.00
60976;BME280;46849;48.154;17.042;2022-12-10T10:15:16;97508.88;;;2.53;100.00
60976;BME280;46849;48.154;17.042;2022-12-10T10:18:23;97525.72;;;2.28;100.00
60976;BME280;46849;48.154;17.042;2022-12-10T10:21:36;97527.91;;;4.30;100.00
60976;BME280;46849;48.154;17.042;2022-12-10T10:24:31;97525.38;;;4.01;100.00
60976;BME280;46849;48.154;17.042;2022-12-10T10:27:42;97524.28;;;4.47;100.00
60976;BME280;46849;48.154;17.042;2022-12-10T10:30:32;97521.22;;;4.13;100.00
60976;BME280;46849;48.154;17.042;2022-12-10T10:33:20;97522.81;;;3.86;100.00
60976;BME280;46849;48.154;17.042;2022-12-10T10:36:05;97526.84;;;3.61;100.00
60976;BME280;46849;48.154;17.042;2022-12-10T10:38:51;97520.31;;;3.55;100.00
60976;BME280;46849;48.154;17.042;2022-12-10T10:41:40;97521.63;;;2.56;100.00
60976;BME280;46849;48.154;17.042;2022-12-10T10:44:30;97523.91;;;1.80;100.00
60976;BME280;46849;48.154;17.042;2022-12-10T10:47:28;97504.69;;;2.18;100.00
60976;BME280;46849;48.154;17.042;2022-12-10T10:50:24;97495.84;;;1.90;100.00
60976;BME280;46849;48.154;17.042;2022-12-10T10:56:26;97479.47;;;1.57;100.00
60976;BME280;46849;48.154;17.042;2022-12-10T11:02:16;97465.59;;;1.92;100.00
60976;BME280;46849;48.154;17.042;2022-12-10T11:05:29;97477.44;;;1.96;100.00
60976;BME280;46849;48.154;17.042;2022-12-10T11:08:18;97458.53;;;1.95;100.00
60976;BME280;46849;48.154;17.042;2022-12-10T11:11:11;97450.28;;;1.72;100.00
60976;BME280;46849;48.154;17.042;2022-12-10T11:14:24;97453.78;;;1.88;100.00
60976;BME280;46849;48.154;17.042;2022-12-10T11:20:19;97460.69;;;2.03;100.00
60976;BME280;46849;48.154;17.042;2022-12-10T11:23:10;97467.50;;;2.04;100.00
60976;BME280;46849;48.154;17.042;2022-12-10T11:26:12;97457.94;;;2.06;100.00
60976;BME280;46849;48.154;17.042;2022-12-10T11:35:12;97458.34;;;1.66;100.00
60976;BME280;46849;48.154;17.042;2022-12-10T11:50:32;97443.84;;;1.80;100.00
60976;BME280;46849;48.154;17.042;2022-12-10T11:53:45;97441.34;;;1.78;100.00
60976;BME280;46849;48.154;17.042;2022-12-10T11:56:44;97447.78;;;1.71;100.00
60976;BME280;46849;48.154;17.042;2022-12-10T11:59:34;97439.84;;;1.74;100.00
60976;BME280;46849;48.154;17.042;2022-12-10T12:02:34;97444.59;;;1.98;100.00
60976;BME280;46849;48.154;17.042;2022-12-10T12:06:17;97444.44;;;1.69;100.00
60976;BME280;46849;48.154;17.042;2022-12-10T12:15:00;97434.25;;;1.66;100.00
60976;BME280;46849;48.154;17.042;2022-12-10T12:17:52;97437.94;;;1.78;100.00
60976;BME280;46849;48.154;17.042;2022-12-10T12:20:59;97432.34;;;1.69;100.00
60976;BME280;46849;48.154;17.042;2022-12-10T12:24:06;97435.16;;;1.48;100.00
60976;BME280;46849;48.154;17.042;2022-12-10T12:27:01;97437.59;;;1.52;100.00
60976;BME280;46849;48.154;17.042;2022-12-10T12:29:58;97436.69;;;1.69;100.00
60976;BME280;46849;48.154;17.042;2022-12-10T12:36:32;97439.56;;;1.46;100.00
60976;BME280;46849;48.154;17.042;2022-12-10T12:42:29;97436.97;;;1.30;100.00
60976;BME280;46849;48.154;17.042;2022-12-10T12:45:28;97427.53;;;1.29;100.00
60976;BME280;46849;48.154;17.042;2022-12-10T12:48:29;97430.94;;;0.96;100.00
60976;BME280;46849;48.154;17.042;2022-12-10T12:54:14;97443.66;;;1.17;100.00
60976;BME280;46849;48.154;17.042;2022-12-10T12:57:14;97430.78;;;0.99;100.00
60976;BME280;46849;48.154;17.042;2022-12-10T13:00:08;97433.75;;;0.91;100.00
60976;BME280;46849;48.154;17.042;2022-12-10T13:05:42;97433.06;;;1.05;100.00
60976;BME280;46849;48.154;17.042;2022-12-10T13:08:33;97433.25;;;1.18;100.00
60976;BME280;46849;48.154;17.042;2022-12-10T13:11:31;97452.75;;;1.24;100.00
60976;BME280;46849;48.154;17.042;2022-12-10T13:14:30;97446.44;;;0.96;100.00
60976;BME280;46849;48.154;17.042;2022-12-10T13:17:36;97454.78;;;1.01;100.00
60976;BME280;46849;48.154;17.042;2022-12-10T13:21:26;97454.31;;;0.93;100.00
60976;BME280;46849;48.154;17.042;2022-12-10T13:24:18;97451.19;;;1.04;100.00
60976;BME280;46849;48.154;17.042;2022-12-10T13:30:36;97457.84;;;1.26;100.00
60976;BME280;46849;48.154;17.042;2022-12-10T13:33:36;97475.72;;;1.46;100.00
60976;BME280;46849;48.154;17.042;2022-12-10T13:39:33;97487.66;;;1.65;100.00
60976;BME280;46849;48.154;17.042;2022-12-10T13:45:41;97479.91;;;1.65;100.00
60976;BME280;46849;48.154;17.042;2022-12-10T13:48:29;97483.31;;;1.66;100.00
60976;BME280;46849;48.154;17.042;2022-12-10T14:06:37;97456.41;;;2.51;100.00
60976;BME280;46849;48.154;17.042;2022-12-10T14:09:34;97453.53;;;2.55;100.00
60976;BME280;46849;48.154;17.042;2022-12-10T14:12:36;97461.63;;;2.18;100.00
60976;BME280;46849;48.154;17.042;2022-12-10T14:15:25;97463.66;;;2.44;100.00
60976;BME280;46849;48.154;17.042;2022-12-10T14:18:13;97465.59;;;1.92;100.00
60976;BME280;46849;48.154;17.042;2022-12-10T14:21:06;97453.78;;;2.04;100.00
60976;BME280;46849;48.154;17.042;2022-12-10T14:24:05;97451.66;;;2.11;100.00
60976;BME280;46849;48.154;17.042;2022-12-10T14:27:01;97450.53;;;1.84;100.00
60976;BME280;46849;48.154;17.042;2022-12-10T14:29:47;97451.84;;;1.91;100.00
60976;BME280;46849;48.154;17.042;2022-12-10T14:32:36;97450.09;;;1.76;100.00
60976;BME280;46849;48.154;17.042;2022-12-10T14:35:26;97439.72;;;2.71;100.00
60976;BME280;46849;48.154;17.042;2022-12-10T14:38:19;97449.22;;;4.72;100.00
60976;BME280;46849;48.154;17.042;2022-12-10T14:41:06;97443.66;;;3.80;100.00
60976;BME280;46849;48.154;17.042;2022-12-10T14:44:03;97437.28;;;2.53;100.00
60976;BME280;46849;48.154;17.042;2022-12-10T14:46:49;97439.53;;;1.96;100.00
60976;BME280;46849;48.154;17.042;2022-12-10T14:49:39;97431.81;;;1.46;100.00
60976;BME280;46849;48.154;17.042;2022-12-10T14:52:33;97442.41;;;1.42;100.00
60976;BME280;46849;48.154;17.042;2022-12-10T14:55:23;97432.81;;;1.44;100.00
60976;BME280;46849;48.154;17.042;2022-12-10T14:58:14;97438.72;;;1.46;100.00
60976;BME280;46849;48.154;17.042;2022-12-10T15:01:02;97430.78;;;1.33;100.00
60976;BME280;46849;48.154;17.042;2022-12-10T15:03:49;97431.16;;;1.43;100.00
60976;BME280;46849;48.154;17.042;2022-12-10T15:06:35;97427.63;;;1.78;100.00
60976;BME280;46849;48.154;17.042;2022-12-10T15:09:23;97425.13;;;1.92;100.00
60976;BME280;46849;48.154;17.042;2022-12-10T15:15:21;97419.56;;;2.31;100.00
60976;BME280;46849;48.154;17.042;2022-12-10T15:21:02;97421.16;;;1.37;100.00
60976;BME280;46849;48.154;17.042;2022-12-10T15:23:48;97425.66;;;1.49;100.00
60976;BME280;46849;48.154;17.042;2022-12-10T15:26:36;97431.66;;;1.50;100.00
60976;BME280;46849;48.154;17.042;2022-12-10T15:29:47;97418.69;;;1.67;100.00
60976;BME280;46849;48.154;17.042;2022-12-10T15:32:32;97426.22;;;1.38;100.00
60976;BME280;46849;48.154;17.042;2022-12-10T15:35:17;97417.84;;;2.77;100.00
60976;BME280;46849;48.154;17.042;2022-12-10T15:38:03;97422.88;;;2.02;100.00
60976;BME280;46849;48.154;17.042;2022-12-10T15:40:58;97421.06;;;1.38;100.00
60976;BME280;46849;48.154;17.042;2022-12-10T15:43:55;97419.34;;;1.55;100.00
60976;BME280;46849;48.154;17.042;2022-12-10T15:49:56;97407.25;;;1.55;100.00
60976;BME280;46849;48.154;17.042;2022-12-10T15:52:59;97403.25;;;1.33;100.00
60976;BME280;46849;48.154;17.042;2022-12-10T15:55:44;97401.38;;;1.53;100.00
60976;BME280;46849;48.154;17.042;2022-12-10T15:58:29;97408.06;;;1.23;100.00
60976;BME280;46849;48.154;17.042;2022-12-10T16:01:14;97398.81;;;1.35;100.00
60976;BME280;46849;48.154;17.042;2022-12-10T16:04:01;97385.09;;;1.35;100.00
60976;BME280;46849;48.154;17.042;2022-12-10T16:06:47;97403.34;;;1.32;100.00
60976;BME280;46849;48.154;17.042;2022-12-10T16:09:33;97385.88;;;1.69;100.00
60976;BME280;46849;48.154;17.042;2022-12-10T16:12:20;97390.25;;;1.35;100.00
60976;BME280;46849;48.154;17.042;2022-12-10T16:15:19;97381.50;;;1.21;100.00
60976;BME280;46849;48.154;17.042;2022-12-10T16:18:05;97381.44;;;2.04;100.00
60976;BME280;46849;48.154;17.042;2022-12-10T16:20:51;97382.50;;;2.46;100.00
60976;BME280;46849;48.154;17.042;2022-12-10T16:23:36;97374.16;;;2.27;100.00
60976;BME280;46849;48.154;17.042;2022-12-10T16:26:22;97367.47;;;1.76;100.00
60976;BME280;46849;48.154;17.042;2022-12-10T16:29:08;97362.28;;;1.27;100.00
60976;BME280;46849;48.154;17.042;2022-12-10T16:31:54;97344.59;;;1.19;100.00
60976;BME280;46849;48.154;17.042;2022-12-10T16:34:39;97354.69;;;1.24;100.00
60976;BME280;46849;48.154;17.042;2022-12-10T16:37:24;97366.84;;;1.22;100.00
60976;BME280;46849;48.154;17.042;2022-12-10T16:40:10;97362.22;;;1.11;100.00
60976;BME280;46849;48.154;17.042;2022-12-10T16:42:56;97359.81;;;1.08;100.00
60976;BME280;46849;48.154;17.042;2022-12-10T16:45:45;97360.22;;;1.00;100.00
60976;BME280;46849;48.154;17.042;2022-12-10T16:49:09;97357.06;;;1.61;100.00